sensor_id;sensor_type;location;lat;lon;timestamp;P1;P2;P0
45112;PMS5003;30873;53.908;27.576;2023-01-29T00:01:05;8.6;7.4;4.3
45112;PMS5003;30873;53.908;27.576;2023-01-29T00:06:29;9;7.5;4.6
45112;PMS5003;30873;53.908;27.576;2023-01-29T00:11:39;10.8;8.2;4.8
45112;PMS5003;30873;53.908;27.576;2023-01-29T00:16:51;7.6;6.9;4.1
45112;PMS5003;30873;53.908;27.576;2023-01-29T00:21:51;7.6;7.1;4.2
45112;PMS5003;30873;53.908;27.576;2023-01-29T00:26:05;8.5;7.6;5.4
45112;PMS5003;30873;53.908;27.576;2023-01-29T00:31:53;9;7.7;4.7
45112;PMS5003;30873;53.908;27.576;2023-01-29T00:36:05;8.8;7.8;4.5
45112;PMS5003;30873;53.908;27.576;2023-01-29T00:41:39;9.1;8.1;5.2
45112;PMS5003;30873;53.908;27.576;2023-01-29T00:46:15;7.9;6.9;4.4
45112;PMS5003;30873;53.908;27.576;2023-01-29T00:51:53;6.9;6.3;4.3
45112;PMS5003;30873;53.908;27.576;2023-01-29T00:56:27;8.2;7.3;4.2
45112;PMS5003;30873;53.908;27.576;2023-01-29T01:01:51;7;5.8;3.6
45112;PMS5003;30873;53.908;27.576;2023-01-29T01:06:37;6.4;5.1;3.4
45112;PMS5003;30873;53.908;27.576;2023-01-29T01:11:51;6.7;5.8;3.5
45112;PMS5003;30873;53.908;27.576;2023-01-29T01:16:39;6.1;5.1;3.3
45112;PMS5003;30873;53.908;27.576;2023-01-29T01:21:05;6.3;4.9;3.3
45112;PMS5003;30873;53.908;27.576;2023-01-29T01:26:41;6.6;6.1;3.4
45112;PMS5003;30873;53.908;27.576;2023-01-29T01:31:07;7;5.6;3.7
45112;PMS5003;30873;53.908;27.576;2023-01-29T01:36:37;7.9;7.1;3.8
45112;PMS5003;30873;53.908;27.576;2023-01-29T01:41:51;6.9;5.8;3.3
45112;PMS5003;30873;53.908;27.576;2023-01-29T01:46:25;7.5;6.3;3.8
45112;PMS5003;30873;53.908;27.576;2023-01-29T01:51:05;7.9;6.4;3.9
45112;PMS5003;30873;53.908;27.576;2023-01-29T01:56:49;6.8;5.8;3.6
45112;PMS5003;30873;53.908;27.576;2023-01-29T02:01:27;7.2;6.1;3.7
45112;PMS5003;30873;53.908;27.576;2023-01-29T02:06:51;7.1;6.3;4.1
45112;PMS5003;30873;53.908;27.576;2023-01-29T02:11:29;6.9;6.4;4.1
45112;PMS5003;30873;53.908;27.576;2023-01-29T02:16:17;7.8;6.8;3.8
45112;PMS5003;30873;53.908;27.576;2023-01-29T02:21:37;8.3;7.1;4.1
45112;PMS5003;30873;53.908;27.576;2023-01-29T02:26:08;10.8;8.5;4.8
45112;PMS5003;30873;53.908;27.576;2023-01-29T02:31:55;9.8;7.8;4.8
45112;PMS5003;30873;53.908;27.576;2023-01-29T02:36:53;9.5;8.2;4.8
45112;PMS5003;30873;53.908;27.576;2023-01-29T02:41:06;9.4;8;5.3
45112;PMS5003;30873;53.908;27.576;2023-01-29T02:46:52;10.3;8.9;5.5
45112;PMS5003;30873;53.908;27.576;2023-01-29T02:51:55;11.6;9.1;5.9
45112;PMS5003;30873;53.908;27.576;2023-01-29T02:56:40;9.5;7.8;4.6
45112;PMS5003;30873;53.908;27.576;2023-01-29T03:01:06;9.4;8.1;3.8
45112;PMS5003;30873;53.908;27.576;2023-01-29T03:06:53;7.6;6.6;3.3
45112;PMS5003;30873;53.908;27.576;2023-01-29T03:11:31;8.3;6.1;3.5
45112;PMS5003;30873;53.908;27.576;2023-01-29T03:16:30;8.2;6.5;3.5
45112;PMS5003;30873;53.908;27.576;2023-01-29T03:21:53;7.1;6;3
45112;PMS5003;30873;53.908;27.576;2023-01-29T03:26:55;8;6.2;3.6
45112;PMS5003;30873;53.908;27.576;2023-01-29T03:31:33;7.8;6.2;3.1
45112;PMS5003;30873;53.908;27.576;2023-01-29T03:36:31;8.3;6.6;3.7
45112;PMS5003;30873;53.908;27.576;2023-01-29T03:41:54;8.6;6.7;3.9
45112;PMS5003;30873;53.908;27.576;2023-01-29T03:46:45;7.6;5.6;3.2
45112;PMS5003;30873;53.908;27.576;2023-01-29T03:51:45;5.8;5.1;3.2
45112;PMS5003;30873;53.908;27.576;2023-01-29T03:56:34;9.7;6.5;3.8
45112;PMS5003;30873;53.908;27.576;2023-01-29T04:01:41;6.9;5.9;3.5
45112;PMS5003;30873;53.908;27.576;2023-01-29T04:06:29;6.8;5.6;3.6
45112;PMS5003;30873;53.908;27.576;2023-01-29T04:11:56;6.5;5.6;2.7
45112;PMS5003;30873;53.908;27.576;2023-01-29T04:16:32;5.4;4.6;2
45112;PMS5003;30873;53.908;27.576;2023-01-29T04:21:25;5.3;3.8;2.3
45112;PMS5003;30873;53.908;27.576;2023-01-29T04:26:57;4.8;4.1;2.2
45112;PMS5003;30873;53.908;27.576;2023-01-29T04:31:15;7.2;5.8;3.1
45112;PMS5003;30873;53.908;27.576;2023-01-29T04:36:43;6.1;5;3.1
45112;PMS5003;30873;53.908;27.576;2023-01-29T04:41:45;4.8;4.4;2.4
45112;PMS5003;30873;53.908;27.576;2023-01-29T04:46:46;6.8;5.6;2.8
45112;PMS5003;30873;53.908;27.576;2023-01-29T04:51:20;8;6.2;3.5
45112;PMS5003;30873;53.908;27.576;2023-01-29T04:56:45;6.2;5.1;3.5
45112;PMS5003;30873;53.908;27.576;2023-01-29T05:01:05;9.1;6.2;3.4
45112;PMS5003;30873;53.908;27.576;2023-01-29T05:06:43;6.3;5.2;2.9
45112;PMS5003;30873;53.908;27.576;2023-01-29T05:11:39;6.2;5.3;3.2
45112;PMS5003;30873;53.908;27.576;2023-01-29T05:16:53;8.7;7;3.8
45112;PMS5003;30873;53.908;27.576;2023-01-29T05:21:55;5.7;4.8;2.5
45112;PMS5003;30873;53.908;27.576;2023-01-29T05:26:31;6.2;5;2.3
45112;PMS5003;30873;53.908;27.576;2023-01-29T05:31:55;5.1;4.4;2.1
45112;PMS5003;30873;53.908;27.576;2023-01-29T05:36:19;6.6;4.5;2.4
45112;PMS5003;30873;53.908;27.576;2023-01-29T05:41:39;5.5;4.8;2.6
45112;PMS5003;30873;53.908;27.576;2023-01-29T05:46:19;7.1;6.1;3.4
45112;PMS5003;30873;53.908;27.576;2023-01-29T05:51:55;7.9;6.6;2.9
45112;PMS5003;30873;53.908;27.576;2023-01-29T05:56:31;6.5;5.5;2.8
45112;PMS5003;30873;53.908;27.576;2023-01-29T06:01:43;7.5;5.5;3.3
45112;PMS5003;30873;53.908;27.576;2023-01-29T06:06:27;6.2;4.9;2.4
45112;PMS5003;30873;53.908;27.576;2023-01-29T06:11:55;5.7;3.8;2.4
45112;PMS5003;30873;53.908;27.576;2023-01-29T06:16:55;6.5;5.6;3
45112;PMS5003;30873;53.908;27.576;2023-01-29T06:21:21;6.5;5.2;2.9
45112;PMS5003;30873;53.908;27.576;2023-01-29T06:26:33;6.8;5.7;3.4
45112;PMS5003;30873;53.908;27.576;2023-01-29T06:31:39;6.8;5.3;3
45112;PMS5003;30873;53.908;27.576;2023-01-29T06:36:39;6.8;5.5;2.4
45112;PMS5003;30873;53.908;27.576;2023-01-29T06:41:51;6.8;4.6;2.3
45112;PMS5003;30873;53.908;27.576;2023-01-29T06:46:15;6.8;5.8;2.8
45112;PMS5003;30873;53.908;27.576;2023-01-29T06:51:39;6.8;5.2;3.3
45112;PMS5003;30873;53.908;27.576;2023-01-29T06:56:53;8;6.7;3.7
45112;PMS5003;30873;53.908;27.576;2023-01-29T07:01:15;7.5;5.8;3.5
45112;PMS5003;30873;53.908;27.576;2023-01-29T07:06:31;5.7;5.2;2.6
45112;PMS5003;30873;53.908;27.576;2023-01-29T07:11:19;7.4;5.9;3.6
45112;PMS5003;30873;53.908;27.576;2023-01-29T07:16:55;7.4;5.8;2.8
45112;PMS5003;30873;53.908;27.576;2023-01-29T07:21:41;7.8;6.5;3.5
45112;PMS5003;30873;53.908;27.576;2023-01-29T07:26:33;8.3;7.1;4.2
45112;PMS5003;30873;53.908;27.576;2023-01-29T07:31:15;7.5;6.6;3
45112;PMS5003;30873;53.908;27.576;2023-01-29T07:36:55;8.7;6.4;3.3
45112;PMS5003;30873;53.908;27.576;2023-01-29T07:41:19;7.4;5;3
45112;PMS5003;30873;53.908;27.576;2023-01-29T07:46:43;6.9;5.5;3.2
45112;PMS5003;30873;53.908;27.576;2023-01-29T07:51:53;7.1;6.2;3.2
45112;PMS5003;30873;53.908;27.576;2023-01-29T07:56:43;6.6;5.9;3.7
45112;PMS5003;30873;53.908;27.576;2023-01-29T08:01:05;7.6;7.3;4
45112;PMS5003;30873;53.908;27.576;2023-01-29T08:06:53;7.5;6.5;3.2
45112;PMS5003;30873;53.908;27.576;2023-01-29T08:11:05;9.1;7.4;3.9
45112;PMS5003;30873;53.908;27.576;2023-01-29T08:16:33;8.5;7;4.3
45112;PMS5003;30873;53.908;27.576;2023-01-29T08:21:53;9.2;7.6;4
45112;PMS5003;30873;53.908;27.576;2023-01-29T08:26:39;8.1;7;3.5
45112;PMS5003;30873;53.908;27.576;2023-01-29T08:31:41;9.5;7;5.1
45112;PMS5003;30873;53.908;27.576;2023-01-29T08:36:17;10.6;8.2;4.4
45112;PMS5003;30873;53.908;27.576;2023-01-29T08:41:41;9.7;7.7;4.6
45112;PMS5003;30873;53.908;27.576;2023-01-29T08:46:29;9.4;7.9;4.6
45112;PMS5003;30873;53.908;27.576;2023-01-29T08:51:33;10.5;8.8;5.3
45112;PMS5003;30873;53.908;27.576;2023-01-29T08:56:05;10.2;8.5;4.9
45112;PMS5003;30873;53.908;27.576;2023-01-29T09:01:41;9.9;8.8;4.8
45112;PMS5003;30873;53.908;27.576;2023-01-29T09:06:05;10.1;8.8;5.3
45112;PMS5003;30873;53.908;27.576;2023-01-29T09:11:55;10.5;9;5.1
45112;PMS5003;30873;53.908;27.576;2023-01-29T09:16:41;11.2;8.7;5.6
45112;PMS5003;30873;53.908;27.576;2023-01-29T09:21:41;11.6;9.3;6
45112;PMS5003;30873;53.908;27.576;2023-01-29T09:26:55;11.1;9;5.2
45112;PMS5003;30873;53.908;27.576;2023-01-29T09:31:15;10.3;9.4;6
45112;PMS5003;30873;53.908;27.576;2023-01-29T09:36:39;10.6;9.9;6.3
45112;PMS5003;30873;53.908;27.576;2023-01-29T09:41:18;10.2;8.9;5.3
45112;PMS5003;30873;53.908;27.576;2023-01-29T09:46:41;10.1;8.5;5.3
45112;PMS5003;30873;53.908;27.576;2023-01-29T09:51:33;11.2;9.9;5.5
45112;PMS5003;30873;53.908;27.576;2023-01-29T09:56:41;11;9.3;5.5
45112;PMS5003;30873;53.908;27.576;2023-01-29T10:01:29;12;10.6;6.8
45112;PMS5003;30873;53.908;27.576;2023-01-29T10:06:42;11.8;10.3;6.4
45112;PMS5003;30873;53.908;27.576;2023-01-29T10:11:41;11.6;10.2;6.7
45112;PMS5003;30873;53.908;27.576;2023-01-29T10:16:56;11.8;10.6;6.3
45112;PMS5003;30873;53.908;27.576;2023-01-29T10:21:32;14.6;11.4;6.9
45112;PMS5003;30873;53.908;27.576;2023-01-29T10:26:29;11.5;9.7;5.5
45112;PMS5003;30873;53.908;27.576;2023-01-29T10:31:51;11;9.4;5.6
45112;PMS5003;30873;53.908;27.576;2023-01-29T10:36:18;12;9.6;5.2
45112;PMS5003;30873;53.908;27.576;2023-01-29T10:41:45;12.4;10.7;5.9
45112;PMS5003;30873;53.908;27.576;2023-01-29T10:46:08;12.3;10.2;6.3
45112;PMS5003;30873;53.908;27.576;2023-01-29T10:51:45;11.6;9.3;5.3
45112;PMS5003;30873;53.908;27.576;2023-01-29T10:56:30;13.1;11.5;6.5
45112;PMS5003;30873;53.908;27.576;2023-01-29T11:01:39;13.2;11.9;6.7
45112;PMS5003;30873;53.908;27.576;2023-01-29T11:06:53;14.3;11.4;7.1
45112;PMS5003;30873;53.908;27.576;2023-01-29T11:11:42;14.4;12.2;7.7
45112;PMS5003;30873;53.908;27.576;2023-01-29T11:16:53;13.8;12.2;7.5
45112;PMS5003;30873;53.908;27.576;2023-01-29T11:21:05;13.9;11.6;6.7
45112;PMS5003;30873;53.908;27.576;2023-01-29T11:26:49;15;13.6;8.2
45112;PMS5003;30873;53.908;27.576;2023-01-29T11:31:14;17.1;14.2;8.6
45112;PMS5003;30873;53.908;27.576;2023-01-29T11:36:43;12.4;10.6;6.1
45112;PMS5003;30873;53.908;27.576;2023-01-29T11:41:19;14.8;12;7.3
45112;PMS5003;30873;53.908;27.576;2023-01-29T11:46:55;15.8;12.6;7.3
45112;PMS5003;30873;53.908;27.576;2023-01-29T11:51:29;17.9;15.3;8.5
45112;PMS5003;30873;53.908;27.576;2023-01-29T11:56:53;15.8;13.4;7.3
45112;PMS5003;30873;53.908;27.576;2023-01-29T12:01:29;18.9;15.1;8.4
45112;PMS5003;30873;53.908;27.576;2023-01-29T12:06:53;20.1;16.8;10.3
45112;PMS5003;30873;53.908;27.576;2023-01-29T12:11:23;20.3;16.6;9.8
45112;PMS5003;30873;53.908;27.576;2023-01-29T12:16:19;19.1;15.5;8.9
45112;PMS5003;30873;53.908;27.576;2023-01-29T12:21:32;17.9;15;8
45112;PMS5003;30873;53.908;27.576;2023-01-29T12:26:18;18.2;14.2;8.4
45112;PMS5003;30873;53.908;27.576;2023-01-29T12:31:42;19.1;14.7;8.9
45112;PMS5003;30873;53.908;27.576;2023-01-29T12:36:55;19.5;16.6;9.1
45112;PMS5003;30873;53.908;27.576;2023-01-29T12:41:32;19.9;16;9.7
45112;PMS5003;30873;53.908;27.576;2023-01-29T12:46:27;22.9;18.4;10.6
45112;PMS5003;30873;53.908;27.576;2023-01-29T12:51:56;14.9;12.7;7
45112;PMS5003;30873;53.908;27.576;2023-01-29T12:56:06;19.7;16.3;9.1
45112;PMS5003;30873;53.908;27.576;2023-01-29T13:01:19;20.4;16.6;9.9
45112;PMS5003;30873;53.908;27.576;2023-01-29T13:06:32;20.1;16.6;10
45112;PMS5003;30873;53.908;27.576;2023-01-29T13:11:18;16.7;13.3;8.2
45112;PMS5003;30873;53.908;27.576;2023-01-29T13:16:29;16.4;14.2;8.6
45112;PMS5003;30873;53.908;27.576;2023-01-29T13:21:05;20.2;17.1;9.7
45112;PMS5003;30873;53.908;27.576;2023-01-29T13:26:05;15.1;12.9;8
45112;PMS5003;30873;53.908;27.576;2023-01-29T13:31:53;16.6;14.5;9
45112;PMS5003;30873;53.908;27.576;2023-01-29T13:36:31;18.4;14.9;8.5
45112;PMS5003;30873;53.908;27.576;2023-01-29T13:41:53;18;14.8;9.3
45112;PMS5003;30873;53.908;27.576;2023-01-29T13:46:52;20.1;16.6;9.6
45112;PMS5003;30873;53.908;27.576;2023-01-29T13:51:39;13.8;11.6;6.6
45112;PMS5003;30873;53.908;27.576;2023-01-29T13:56:27;15.3;13.2;7
45112;PMS5003;30873;53.908;27.576;2023-01-29T14:02:01;14.6;12.7;7.4
45112;PMS5003;30873;53.908;27.576;2023-01-29T14:06:05;15.9;13.4;8.7
45112;PMS5003;30873;53.908;27.576;2023-01-29T14:11:33;16.9;13.7;7.3
45112;PMS5003;30873;53.908;27.576;2023-01-29T14:16:47;16.3;13.8;8.5
45112;PMS5003;30873;53.908;27.576;2023-01-29T14:21:41;16.7;13.8;7.6
45112;PMS5003;30873;53.908;27.576;2023-01-29T14:26:41;18.3;15.6;8.9
45112;PMS5003;30873;53.908;27.576;2023-01-29T14:31:29;16.9;13.1;7.6
45112;PMS5003;30873;53.908;27.576;2023-01-29T14:36:55;12.5;10.2;6
45112;PMS5003;30873;53.908;27.576;2023-01-29T14:41:53;14.9;11.8;6.8
45112;PMS5003;30873;53.908;27.576;2023-01-29T14:46:43;13.9;12.1;7.6
45112;PMS5003;30873;53.908;27.576;2023-01-29T14:51:17;14.2;13.2;8.3
45112;PMS5003;30873;53.908;27.576;2023-01-29T14:56:55;15.3;12.2;6.9
45112;PMS5003;30873;53.908;27.576;2023-01-29T15:01:42;13.6;11.6;6.7
45112;PMS5003;30873;53.908;27.576;2023-01-29T15:06:18;14.4;12.2;7.6
45112;PMS5003;30873;53.908;27.576;2023-01-29T15:11:46;14.9;12.3;7.8
45112;PMS5003;30873;53.908;27.576;2023-01-29T15:16:43;17.2;14.3;7.8
45112;PMS5003;30873;53.908;27.576;2023-01-29T15:22:00;14.8;12.9;7.6
45112;PMS5003;30873;53.908;27.576;2023-01-29T15:26:05;14.8;13;7.9
45112;PMS5003;30873;53.908;27.576;2023-01-29T15:31:53;15.9;14.2;8.6
45112;PMS5003;30873;53.908;27.576;2023-01-29T15:36:05;15.7;13.8;8.9
45112;PMS5003;30873;53.908;27.576;2023-01-29T15:41:39;16.1;14.2;7.6
45112;PMS5003;30873;53.908;27.576;2023-01-29T15:46:05;18.5;16.1;9.2
45112;PMS5003;30873;53.908;27.576;2023-01-29T15:51:41;18.2;15.9;9.7
45112;PMS5003;30873;53.908;27.576;2023-01-29T15:56:06;19.8;16.5;9.9
45112;PMS5003;30873;53.908;27.576;2023-01-29T16:01:53;20.7;16.9;9.9
45112;PMS5003;30873;53.908;27.576;2023-01-29T16:06:29;20.9;17.2;10.4
45112;PMS5003;30873;53.908;27.576;2023-01-29T16:11:41;25.4;21;11.7
45112;PMS5003;30873;53.908;27.576;2023-01-29T16:16:53;21;17.9;10.2
45112;PMS5003;30873;53.908;27.576;2023-01-29T16:21:43;22.1;17.5;10.3
45112;PMS5003;30873;53.908;27.576;2023-01-29T16:26:41;20.4;16.4;10.2
45112;PMS5003;30873;53.908;27.576;2023-01-29T16:31:20;20.9;17.5;10.4
45112;PMS5003;30873;53.908;27.576;2023-01-29T16:36:43;21.6;17.8;10.8
45112;PMS5003;30873;53.908;27.576;2023-01-29T16:41:27;22.3;17.5;11.2
45112;PMS5003;30873;53.908;27.576;2023-01-29T16:46:58;25.7;20.6;12.2
45112;PMS5003;30873;53.908;27.576;2023-01-29T16:51:35;23.8;19.4;11
45112;PMS5003;30873;53.908;27.576;2023-01-29T16:56:45;27.2;21.8;12.3
45112;PMS5003;30873;53.908;27.576;2023-01-29T17:01:41;23.1;18.4;10.8
45112;PMS5003;30873;53.908;27.576;2023-01-29T17:06:53;27.2;23;13.1
45112;PMS5003;30873;53.908;27.576;2023-01-29T17:11:53;26.3;21.8;12
45112;PMS5003;30873;53.908;27.576;2023-01-29T17:16:13;24.5;19.9;11.5
45112;PMS5003;30873;53.908;27.576;2023-01-29T17:21:55;27.8;22.2;12.8
45112;PMS5003;30873;53.908;27.576;2023-01-29T17:26:05;24;21.8;12.1
45112;PMS5003;30873;53.908;27.576;2023-01-29T17:31:41;26.1;21.9;12.6
45112;PMS5003;30873;53.908;27.576;2023-01-29T17:36:19;27.3;22.4;12.3
45112;PMS5003;30873;53.908;27.576;2023-01-29T17:41:53;27.2;21.2;12.8
45112;PMS5003;30873;53.908;27.576;2023-01-29T17:46:31;25.8;20.3;11.4
45112;PMS5003;30873;53.908;27.576;2023-01-29T17:51:21;30.9;25.7;15.4
45112;PMS5003;30873;53.908;27.576;2023-01-29T17:56:20;28.6;23.1;13
45112;PMS5003;30873;53.908;27.576;2023-01-29T18:01:53;30;25.1;14.6
45112;PMS5003;30873;53.908;27.576;2023-01-29T18:06:31;29.1;24.5;13.5
45112;PMS5003;30873;53.908;27.576;2023-01-29T18:11:17;30;24.6;14.5
45112;PMS5003;30873;53.908;27.576;2023-01-29T18:16:29;26.6;21.8;12.3
45112;PMS5003;30873;53.908;27.576;2023-01-29T18:21:05;27.8;22.2;12.7
45112;PMS5003;30873;53.908;27.576;2023-01-29T18:26:41;28;24.4;13.1
45112;PMS5003;30873;53.908;27.576;2023-01-29T18:31:53;27.5;23.1;13.8
45112;PMS5003;30873;53.908;27.576;2023-01-29T18:36:27;25.5;21.5;12.2
45112;PMS5003;30873;53.908;27.576;2023-01-29T18:41:29;28;22.8;12.9
45112;PMS5003;30873;53.908;27.576;2023-01-29T18:46:53;29.3;24.8;14.4
45112;PMS5003;30873;53.908;27.576;2023-01-29T18:51:39;29.5;22.5;12.9
45112;PMS5003;30873;53.908;27.576;2023-01-29T18:56:39;28.7;22.3;12.3
45112;PMS5003;30873;53.908;27.576;2023-01-29T19:01:33;26;21.8;13.4
45112;PMS5003;30873;53.908;27.576;2023-01-29T19:06:19;28.3;23.4;13.9
45112;PMS5003;30873;53.908;27.576;2023-01-29T19:11:17;27.8;22.4;12.9
45112;PMS5003;30873;53.908;27.576;2023-01-29T19:16:29;24.2;20.1;11.8
45112;PMS5003;30873;53.908;27.576;2023-01-29T19:21:41;26.6;22.3;12.2
45112;PMS5003;30873;53.908;27.576;2023-01-29T19:26:53;27.9;22.3;12.5
45112;PMS5003;30873;53.908;27.576;2023-01-29T19:31:27;27.9;22.7;13.3
45112;PMS5003;30873;53.908;27.576;2023-01-29T19:36:27;24.5;20.3;11.7
45112;PMS5003;30873;53.908;27.576;2023-01-29T19:41:55;26.3;21.9;11.7
45112;PMS5003;30873;53.908;27.576;2023-01-29T19:46:39;27.5;22.4;12.7
45112;PMS5003;30873;53.908;27.576;2023-01-29T19:51:15;28.4;23.5;12.7
45112;PMS5003;30873;53.908;27.576;2023-01-29T19:56:33;25.3;21.1;12.3
45112;PMS5003;30873;53.908;27.576;2023-01-29T20:01:06;30.2;24.5;13.4
45112;PMS5003;30873;53.908;27.576;2023-01-29T20:06:29;27.4;22.7;13.4
45112;PMS5003;30873;53.908;27.576;2023-01-29T20:11:33;29;22.2;13.2
45112;PMS5003;30873;53.908;27.576;2023-01-29T20:16:05;24.4;19.8;11.9
45112;PMS5003;30873;53.908;27.576;2023-01-29T20:21:55;25.9;21.6;12.2
45112;PMS5003;30873;53.908;27.576;2023-01-29T20:26:33;26.1;21.3;13.1
45112;PMS5003;30873;53.908;27.576;2023-01-29T20:31:55;25.6;19.4;11.3
45112;PMS5003;30873;53.908;27.576;2023-01-29T20:36:53;25.4;20.7;11.9
45112;PMS5003;30873;53.908;27.576;2023-01-29T20:41:41;27;21.2;12.4
45112;PMS5003;30873;53.908;27.576;2023-01-29T20:46:17;24.4;20.4;11.1
45112;PMS5003;30873;53.908;27.576;2023-01-29T20:51:53;21.7;18.2;10.1
45112;PMS5003;30873;53.908;27.576;2023-01-29T20:56:05;23;18.9;11.2
45112;PMS5003;30873;53.908;27.576;2023-01-29T21:01:29;25.2;19.7;11
45112;PMS5003;30873;53.908;27.576;2023-01-29T21:06:43;25.7;21;11.4
45112;PMS5003;30873;53.908;27.576;2023-01-29T21:11:41;26.4;22.5;12.3
45112;PMS5003;30873;53.908;27.576;2023-01-29T21:16:43;23.8;20;11.8
45112;PMS5003;30873;53.908;27.576;2023-01-29T21:21:31;26.3;21;12.3
45112;PMS5003;30873;53.908;27.576;2023-01-29T21:26:53;27.1;21.7;12.3
45112;PMS5003;30873;53.908;27.576;2023-01-29T21:31:05;26.8;22;12.2
45112;PMS5003;30873;53.908;27.576;2023-01-29T21:36:41;24.7;20.9;12
45112;PMS5003;30873;53.908;27.576;2023-01-29T21:41:05;25.1;20.6;11.4
45112;PMS5003;30873;53.908;27.576;2023-01-29T21:46:41;27.2;22;13
45112;PMS5003;30873;53.908;27.576;2023-01-29T21:51:17;26.9;21.6;12.8
45112;PMS5003;30873;53.908;27.576;2023-01-29T21:56:53;24.5;21;11
45112;PMS5003;30873;53.908;27.576;2023-01-29T22:01:05;24.1;19.5;11.5
45112;PMS5003;30873;53.908;27.576;2023-01-29T22:06:41;25.4;20.1;10.9
45112;PMS5003;30873;53.908;27.576;2023-01-29T22:11:55;25.3;20.2;11.5
45112;PMS5003;30873;53.908;27.576;2023-01-29T22:16:17;23;19.7;11
45112;PMS5003;30873;53.908;27.576;2023-01-29T22:21:31;25;20.2;11.2
45112;PMS5003;30873;53.908;27.576;2023-01-29T22:26:31;23.9;19.7;11.4
45112;PMS5003;30873;53.908;27.576;2023-01-29T22:31:33;26.5;20.6;11.4
45112;PMS5003;30873;53.908;27.576;2023-01-29T22:36:15;25.3;20;11.5
45112;PMS5003;30873;53.908;27.576;2023-01-29T22:41:43;25.9;21.5;11.6
45112;PMS5003;30873;53.908;27.576;2023-01-29T22:46:15;22.7;19.1;10.5
45112;PMS5003;30873;53.908;27.576;2023-01-29T22:51:45;23.8;20.2;11.8
45112;PMS5003;30873;53.908;27.576;2023-01-29T22:56:41;27.7;22.2;11.8
45112;PMS5003;30873;53.908;27.576;2023-01-29T23:01:53;28;22.2;12.3
45112;PMS5003;30873;53.908;27.576;2023-01-29T23:06:53;27.2;23.1;12.5
45112;PMS5003;30873;53.908;27.576;2023-01-29T23:11:17;25.5;21.3;11.2
45112;PMS5003;30873;53.908;27.576;2023-01-29T23:16:51;26.3;20.8;12.1
45112;PMS5003;30873;53.908;27.576;2023-01-29T23:21:15;23.7;19.1;11.8
45112;PMS5003;30873;53.908;27.576;2023-01-29T23:26:41;25.4;20.4;11.9
45112;PMS5003;30873;53.908;27.576;2023-01-29T23:31:15;23.9;19.6;10.6
45112;PMS5003;30873;53.908;27.576;2023-01-29T23:36:15;22.8;19.8;10.7
45112;PMS5003;30873;53.908;27.576;2023-01-29T23:41:15;26.1;20.8;10.8
45112;PMS5003;30873;53.908;27.576;2023-01-29T23:46:41;24.9;19.9;10.6
45112;PMS5003;30873;53.908;27.576;2023-01-29T23:51:37;25.5;21.1;11.3
45112;PMS5003;30873;53.908;27.576;2023-01-29T23:56:41;24.9;20.5;11
